Time;durP1;ratioP1;P1;durP2;ratioP2;P2;SDS_P1;SDS_P2;PMS_P1;PMS_P2;Temp;Humidity;BMP_temperature;BMP_pressure;BME280_temperature;BME280_humidity;BME280_pressure;Samples;Min_cycle;Max_cycle;Signal;HPM_P1;HPM_P2
2022/10/19 00:01:59;;;;;;;9.27;4.30;;;;;;;10.08;71.79;101120.22;5013436;28;20515;-76
2022/10/19 00:04:25;;;;;;;9.77;4.13;;;;;;;10.05;71.72;101120.03;5013290;28;20113;-76
2022/10/19 00:06:51;;;;;;;9.50;3.55;;;;;;;9.82;71.29;101096.56;4990377;28;20042;-75
2022/10/19 00:09:18;;;;;;;17.02;5.25;;;;;;;9.62;71.59;101074.03;5012871;28;20062;-75
2022/10/19 00:11:46;;;;;;;17.83;5.38;;;;;;;9.84;71.92;101135.31;5013156;28;20112;-76
2022/10/19 00:14:16;;;;;;;16.98;10.10;;;;;;;9.80;71.75;101125.69;5013034;28;20456;-76
2022/10/19 00:16:43;;;;;;;20.00;8.23;;;;;;;9.50;71.69;101080.34;5013374;28;20030;-76
2022/10/19 00:19:16;;;;;;;14.75;5.50;;;;;;;9.79;71.47;101098.13;5013012;28;20033;-75
2022/10/19 00:21:41;;;;;;;13.00;5.50;;;;;;;9.73;72.70;101114.16;4977817;28;20042;-75
2022/10/19 00:24:07;;;;;;;17.13;4.90;;;;;;;9.62;72.78;101118.78;5012781;28;20036;-75
2022/10/19 00:26:33;;;;;;;13.48;6.20;;;;;;;9.54;73.08;101109.75;5012618;28;20033;-75
2022/10/19 00:28:59;;;;;;;18.70;5.05;;;;;;;9.43;72.51;101100.59;5011355;28;20518;-75
2022/10/19 00:31:25;;;;;;;8.80;4.70;;;;;;;9.17;71.82;101062.38;5012812;28;20065;-75
2022/10/19 00:33:51;;;;;;;13.52;4.80;;;;;;;9.29;72.51;101102.44;5012297;28;20040;-75
2022/10/19 00:36:20;;;;;;;9.85;4.65;;;;;;;9.37;72.46;101101.13;5012417;28;20034;-76
2022/10/19 00:38:46;;;;;;;14.80;4.57;;;;;;;9.36;73.63;101094.25;5012713;28;20116;-75
2022/10/19 00:41:12;;;;;;;13.95;4.57;;;;;;;9.26;74.91;101099.69;5012287;28;20034;-76
2022/10/19 00:44:01;;;;;;;12.57;4.57;;;;;;;9.31;73.99;101095.66;5012922;28;20064;-76
2022/10/19 00:46:29;;;;;;;15.15;5.38;;;;;;;9.28;74.25;101100.66;5012446;28;20081;-75
2022/10/19 00:49:03;;;;;;;15.77;4.72;;;;;;;9.16;74.59;101080.28;5012356;28;20045;-76
2022/10/19 00:51:31;;;;;;;10.88;4.25;;;;;;;9.10;73.96;101091.19;5012261;28;20034;-75
2022/10/19 00:53:57;;;;;;;11.30;4.55;;;;;;;9.02;73.96;101071.84;5011977;28;20563;-75
2022/10/19 00:56:23;;;;;;;15.93;4.32;;;;;;;9.04;73.76;101083.13;5011994;28;20114;-76
2022/10/19 01:01:27;;;;;;;10.77;4.35;;;;;;;8.72;74.30;101075.44;5423048;22;20084;-76
2022/10/19 01:03:53;;;;;;;13.90;4.55;;;;;;;8.71;74.35;101063.38;5072626;28;20036;-75
2022/10/19 01:06:19;;;;;;;14.85;4.82;;;;;;;8.66;73.19;101061.34;5092298;28;20020;-76
2022/10/19 01:08:44;;;;;;;15.10;5.25;;;;;;;8.57;72.10;101060.06;5092481;28;20035;-75
2022/10/19 01:11:47;;;;;;;15.57;8.52;;;;;;;8.52;71.40;101068.31;5091492;28;20020;-75
2022/10/19 01:14:13;;;;;;;16.17;10.25;;;;;;;8.45;71.42;101056.78;5092390;28;20031;-75
2022/10/19 01:17:12;;;;;;;30.70;24.00;;;;;;;8.49;71.23;101058.75;5092201;28;20032;-75
2022/10/19 01:23:24;;;;;;;18.52;10.38;;;;;;;8.47;70.81;101046.59;5164024;22;20105;-75
2022/10/19 01:26:34;;;;;;;11.20;5.82;;;;;;;8.47;70.84;101049.16;5071479;28;20068;-76
2022/10/19 01:29:17;;;;;;;13.15;4.30;;;;;;;8.53;70.88;101045.22;5071893;28;20028;-75
2022/10/19 01:31:54;;;;;;;14.60;4.22;;;;;;;8.30;71.20;100992.50;5071913;28;20039;-76
2022/10/19 01:34:22;;;;;;;11.32;4.45;;;;;;;8.57;71.79;101052.34;5071527;28;20035;-75
2022/10/19 01:37:05;;;;;;;18.15;4.60;;;;;;;8.57;72.71;101042.03;5071794;28;20414;-75
2022/10/19 01:40:23;;;;;;;10.63;4.15;;;;;;;8.48;73.43;101033.81;5071668;28;20033;-75
2022/10/19 01:43:03;;;;;;;16.40;5.05;;;;;;;8.40;74.58;101033.38;4970478;28;20045;-75
2022/10/19 01:45:44;;;;;;;9.25;4.70;;;;;;;8.39;75.25;101035.88;4970343;28;20039;-75
2022/10/19 01:48:24;;;;;;;9.65;4.20;;;;;;;8.33;75.54;101014.94;4970391;28;20039;-75
2022/10/19 01:51:01;;;;;;;9.27;5.05;;;;;;;8.40;76.04;101027.34;4970472;28;20054;-75
2022/10/19 01:53:31;;;;;;;9.40;4.53;;;;;;;8.34;76.13;101011.56;4970292;28;20417;-75
2022/10/19 01:56:00;;;;;;;12.32;4.68;;;;;;;8.17;75.94;100982.34;4970536;28;20120;-75
2022/10/19 01:58:31;;;;;;;13.18;4.57;;;;;;;8.40;75.77;101022.19;4970375;28;20170;-75
2022/10/19 02:01:01;;;;;;;13.60;4.80;;;;;;;8.22;76.21;100999.81;4961171;28;20039;-75
2022/10/19 02:03:27;;;;;;;13.05;4.65;;;;;;;8.22;76.34;101011.78;4950960;29;20603;-75
2022/10/19 02:05:55;;;;;;;9.15;4.75;;;;;;;8.21;75.46;101016.03;4949626;28;20062;-76
2022/10/19 02:08:28;;;;;;;11.23;4.32;;;;;;;7.85;74.76;100972.06;4950784;29;20031;-76
2022/10/19 02:10:54;;;;;;;11.85;5.28;;;;;;;7.65;74.62;100982.88;4950629;29;20050;-75
2022/10/19 02:13:21;;;;;;;12.13;4.68;;;;;;;7.83;73.34;101009.63;4950309;29;20046;-75
2022/10/19 02:15:51;;;;;;;11.02;5.10;;;;;;;7.84;73.53;101001.13;4950554;29;20027;-75
2022/10/19 02:18:23;;;;;;;12.65;6.68;;;;;;;7.45;74.98;100959.50;4973412;28;20031;-75
2022/10/19 02:20:49;;;;;;;13.63;5.50;;;;;;;7.10;74.86;100899.28;5042023;28;20036;-75
2022/10/19 02:23:17;;;;;;;11.68;6.28;;;;;;;7.76;75.43;100999.78;5050097;28;20052;-75
2022/10/19 02:25:43;;;;;;;29.10;7.00;;;;;;;7.77;76.03;100987.00;5050500;28;20040;-75
2022/10/19 02:28:08;;;;;;;16.50;7.25;;;;;;;7.91;76.51;100997.19;5050417;28;20025;-75
2022/10/19 02:30:34;;;;;;;18.02;6.60;;;;;;;7.96;76.21;100997.47;5050640;28;20029;-75
2022/10/19 02:32:59;;;;;;;14.27;6.75;;;;;;;7.90;75.88;100985.13;5050523;28;20049;-75
2022/10/19 02:35:25;;;;;;;13.05;5.68;;;;;;;7.76;75.65;100980.13;5050230;28;20024;-75
2022/10/19 02:37:50;;;;;;;11.45;5.43;;;;;;;7.72;75.69;100998.72;5050567;28;20060;-75
2022/10/19 02:40:16;;;;;;;10.88;5.57;;;;;;;7.44;76.58;100988.56;5046121;28;20087;-75
2022/10/19 02:42:47;;;;;;;10.40;5.22;;;;;;;7.36;77.15;100993.25;5038921;28;20026;-75
2022/10/19 02:45:29;;;;;;;13.93;5.35;;;;;;;7.41;77.18;100991.84;5030200;28;20091;-75
2022/10/19 02:48:01;;;;;;;12.80;5.45;;;;;;;7.41;76.84;100986.72;5030211;28;20072;-75
2022/10/19 02:50:27;;;;;;;19.25;5.68;;;;;;;7.28;77.06;100990.22;5049502;28;20083;-75
2022/10/19 02:52:52;;;;;;;13.32;5.70;;;;;;;7.10;78.56;100976.31;5050155;28;20032;-75
2022/10/19 02:55:18;;;;;;;15.48;6.68;;;;;;;7.20;78.59;100983.78;5049860;28;20029;-75
2022/10/19 02:57:43;;;;;;;15.10;5.63;;;;;;;7.04;78.42;100974.28;5048812;28;20465;-75
2022/10/19 03:00:09;;;;;;;13.52;5.72;;;;;;;7.12;79.10;100992.69;5048661;28;20025;-75
2022/10/19 03:02:35;;;;;;;13.00;5.80;;;;;;;6.69;78.31;100925.97;5049798;28;20032;-75
2022/10/19 03:05:00;;;;;;;13.95;5.32;;;;;;;6.95;78.27;100994.25;5049821;28;20032;-75
2022/10/19 03:07:26;;;;;;;11.73;5.25;;;;;;;6.95;79.01;100991.69;5049693;28;20099;-75
2022/10/19 03:09:51;;;;;;;9.38;5.15;;;;;;;6.96;78.88;100980.63;5049623;28;20115;-75
2022/10/19 03:12:17;;;;;;;12.23;4.88;;;;;;;6.92;79.69;100983.81;5048652;28;20064;-75
2022/10/19 03:14:43;;;;;;;9.65;4.97;;;;;;;6.96;79.94;100986.63;5049863;28;20041;-75
2022/10/19 03:17:09;;;;;;;13.05;5.93;;;;;;;7.01;79.85;100978.34;5049753;28;20037;-75
2022/10/19 03:19:35;;;;;;;13.25;5.97;;;;;;;7.03;79.53;100985.34;5049701;28;20028;-76
2022/10/19 03:22:01;;;;;;;9.48;5.32;;;;;;;7.11;79.27;100986.66;5049348;28;20053;-75
2022/10/19 03:24:26;;;;;;;11.63;5.35;;;;;;;7.15;79.15;100980.03;5049649;28;20094;-76
2022/10/19 03:26:52;;;;;;;15.70;5.55;;;;;;;7.13;78.35;100985.06;5049830;28;20029;-76
2022/10/19 03:29:17;;;;;;;13.75;5.68;;;;;;;7.13;78.90;100979.06;5049562;28;20563;-75
2022/10/19 03:31:43;;;;;;;9.90;5.63;;;;;;;6.99;79.71;100974.78;5049589;28;20048;-75
2022/10/19 03:34:08;;;;;;;13.38;6.10;;;;;;;7.05;79.69;100970.00;5051304;28;20040;-75
2022/10/19 03:36:36;;;;;;;15.50;6.20;;;;;;;7.01;79.80;100975.78;5053510;28;20399;-76
2022/10/19 03:39:05;;;;;;;15.82;6.82;;;;;;;6.95;79.45;100959.22;5052864;28;20039;-75
2022/10/19 03:41:34;;;;;;;15.65;6.35;;;;;;;6.78;78.90;100929.97;5053232;28;20040;-75
2022/10/19 03:43:59;;;;;;;11.30;5.18;;;;;;;6.32;77.27;100886.16;5053324;28;20041;-75
2022/10/19 03:46:25;;;;;;;14.88;6.35;;;;;;;6.44;78.00;100934.75;5052812;28;20021;-75
2022/10/19 03:48:51;;;;;;;9.25;5.43;;;;;;;6.56;78.61;100961.13;5053027;28;20028;-75
2022/10/19 03:51:19;;;;;;;13.00;5.55;;;;;;;6.35;78.65;100917.13;5052934;28;20082;-75
2022/10/19 03:53:45;;;;;;;12.05;6.70;;;;;;;6.46;78.97;100930.59;5052684;28;20025;-75
2022/10/19 03:56:19;;;;;;;15.75;5.63;;;;;;;6.22;79.93;100905.22;5052969;28;20029;-75
2022/10/19 03:58:46;;;;;;;10.77;5.88;;;;;;;6.16;80.25;100915.09;5052798;28;20071;-75
2022/10/19 04:01:16;;;;;;;11.70;6.15;;;;;;;6.32;80.63;100957.97;5052856;28;20021;-75
2022/10/19 04:03:42;;;;;;;;;;;;;;;6.37;80.67;100955.66;5053190;28;20032;-75
2022/10/19 04:06:13;;;;;;;10.57;5.80;;;;;;;6.36;80.64;100959.91;5052453;28;19909;-76
2022/10/19 04:08:39;;;;;;;18.35;6.13;;;;;;;6.32;80.93;100942.59;5052836;28;20028;-75
2022/10/19 04:11:09;;;;;;;15.48;6.00;;;;;;;6.36;80.82;100944.53;5044525;28;20029;-75
2022/10/19 04:13:34;;;;;;;;;;;;;;;6.33;80.77;100946.94;5033431;28;20033;-75
2022/10/19 04:16:00;;;;;;;14.88;5.72;;;;;;;6.29;81.11;100942.38;5032791;28;20437;-75
2022/10/19 04:18:25;;;;;;;10.90;5.45;;;;;;;6.18;81.18;100934.03;5032850;28;20578;-76
2022/10/19 04:20:58;;;;;;;14.20;5.95;;;;;;;6.26;81.33;100937.06;5032873;28;20562;-75
2022/10/19 04:23:26;;;;;;;15.60;5.45;;;;;;;6.28;80.59;100938.94;5032634;28;20136;-75
2022/10/19 04:25:52;;;;;;;13.85;6.05;;;;;;;6.15;80.32;100936.41;5032563;28;20035;-75
2022/10/19 04:28:18;;;;;;;16.60;6.80;;;;;;;6.19;79.79;100940.03;5032271;28;20108;-76
2022/10/19 04:30:43;;;;;;;15.88;6.15;;;;;;;6.21;79.20;100926.53;5032279;28;20053;-75
2022/10/19 04:33:09;;;;;;;12.80;5.80;;;;;;;6.22;79.19;100930.88;5043768;28;20115;-75
2022/10/19 04:35:34;;;;;;;14.90;5.70;;;;;;;6.12;79.35;100928.53;5051905;28;20094;-75
2022/10/19 04:38:00;;;;;;;15.63;5.78;;;;;;;6.10;79.60;100940.34;5039581;28;20029;-75
2022/10/19 04:40:25;;;;;;;11.23;6.00;;;;;;;6.23;79.03;100927.53;5032299;28;20025;-75
2022/10/19 04:42:50;;;;;;;16.35;5.65;;;;;;;6.32;79.42;100929.75;5032125;28;20112;-77
2022/10/19 04:45:16;;;;;;;14.85;5.75;;;;;;;6.42;79.62;100937.22;5031957;28;20112;-75
2022/10/19 04:47:41;;;;;;;12.43;5.65;;;;;;;6.44;79.68;100932.19;5034546;28;20037;-76
2022/10/19 04:50:07;;;;;;;13.07;6.00;;;;;;;6.39;80.25;100924.22;5032196;28;20042;-75
2022/10/19 04:52:34;;;;;;;14.15;5.78;;;;;;;6.37;80.49;100925.78;5031822;28;20037;-75
2022/10/19 04:54:59;;;;;;;16.73;6.43;;;;;;;6.39;80.62;100931.00;5045682;28;20029;-75
2022/10/19 04:57:26;;;;;;;22.13;6.32;;;;;;;6.32;80.79;100920.38;5050776;28;20052;-75
2022/10/19 04:59:51;;;;;;;13.68;6.80;;;;;;;6.25;79.63;100927.59;5050556;28;20056;-75
2022/10/19 05:02:16;;;;;;;12.85;6.10;;;;;;;6.07;79.65;100930.81;5051247;28;20111;-75
2022/10/19 05:04:42;;;;;;;18.08;6.13;;;;;;;5.86;79.73;100901.22;5047248;28;20811;-76
2022/10/19 05:07:07;;;;;;;15.30;6.47;;;;;;;5.94;80.30;100934.25;5042437;28;20061;-75
2022/10/19 05:09:33;;;;;;;21.17;7.85;;;;;;;5.92;81.41;100927.22;5040893;28;20025;-75
2022/10/19 05:11:58;;;;;;;13.35;5.68;;;;;;;6.02;81.54;100929.63;5040879;28;20086;-75
2022/10/19 05:14:23;;;;;;;14.05;6.43;;;;;;;6.05;81.44;100921.25;5041869;28;20029;-75
2022/10/19 05:16:49;;;;;;;14.25;6.43;;;;;;;6.08;81.41;100923.97;5040071;28;20108;-75
2022/10/19 05:19:14;;;;;;;18.30;6.78;;;;;;;5.87;81.40;100890.19;5045674;28;20111;-75
2022/10/19 05:21:40;;;;;;;14.52;6.70;;;;;;;6.09;81.70;100918.97;5051226;28;20061;-75
2022/10/19 05:24:05;;;;;;;12.75;6.45;;;;;;;6.25;81.70;100923.34;5051352;28;20033;-75
2022/10/19 05:26:31;;;;;;;16.27;7.03;;;;;;;6.13;82.17;100869.66;5051665;28;20041;-74
2022/10/19 05:29:00;;;;;;;16.13;7.78;;;;;;;6.51;82.08;100915.50;5051129;28;20017;-75
2022/10/19 05:31:31;;;;;;;17.13;7.43;;;;;;;6.62;81.81;100917.03;5051052;28;20091;-74
2022/10/19 05:33:57;;;;;;;12.68;6.93;;;;;;;6.73;80.78;100902.25;5050871;28;20707;-75
2022/10/19 05:36:31;;;;;;;11.48;6.25;;;;;;;6.93;80.07;100924.88;4999598;28;20479;-75
2022/10/19 05:38:57;;;;;;;12.80;6.40;;;;;;;6.77;79.82;100925.63;5050824;28;20033;-75
2022/10/19 05:41:24;;;;;;;14.10;8.13;;;;;;;6.75;80.12;100931.47;5051010;28;20094;-75
2022/10/19 05:43:55;;;;;;;12.25;7.05;;;;;;;6.72;79.55;100924.47;5050765;28;20527;-75
2022/10/19 05:46:22;;;;;;;11.77;7.07;;;;;;;6.83;78.95;100924.22;5050762;28;20502;-75
2022/10/19 05:48:49;;;;;;;12.77;7.20;;;;;;;6.99;78.74;100932.06;5050936;28;20021;-75
2022/10/19 05:51:17;;;;;;;14.00;7.63;;;;;;;7.12;78.94;100936.22;5050818;28;20105;-75
2022/10/19 05:53:43;;;;;;;20.10;8.18;;;;;;;7.31;78.57;100945.00;5050705;28;20024;-75
2022/10/19 05:56:13;;;;;;;23.80;9.50;;;;;;;7.19;78.30;100891.22;5050420;28;20021;-75
2022/10/19 05:58:39;;;;;;;15.40;8.52;;;;;;;7.49;78.32;100922.03;5050494;28;20031;-75
2022/10/19 06:01:05;;;;;;;16.73;8.93;;;;;;;7.68;78.39;100934.25;5050840;28;20104;-75
2022/10/19 06:03:31;;;;;;;15.93;7.97;;;;;;;7.82;78.16;100935.00;5032636;28;20021;-74
2022/10/19 06:05:56;;;;;;;14.13;7.55;;;;;;;7.71;77.73;100896.75;5049649;28;20105;-75
2022/10/19 06:08:23;;;;;;;14.98;8.85;;;;;;;8.03;77.42;100943.88;5050559;28;20494;-75
2022/10/19 06:10:49;;;;;;;20.35;9.68;;;;;;;8.14;77.36;100941.91;5049040;28;20099;-74
2022/10/19 06:13:16;;;;;;;12.88;8.93;;;;;;;8.20;77.18;100929.38;5050109;28;20542;-75
2022/10/19 06:15:42;;;;;;;17.02;9.68;;;;;;;8.15;77.12;100897.41;5050428;28;20031;-75
2022/10/19 06:18:12;;;;;;;12.68;9.18;;;;;;;8.52;76.63;100937.06;5048877;28;20033;-75
2022/10/19 06:20:39;;;;;;;;;;;;;;;8.61;75.95;100940.16;5050808;28;20056;-74
2022/10/19 06:23:05;;;;;;;16.38;8.70;;;;;;;8.77;75.02;100935.78;5050123;28;19944;-75
2022/10/19 06:25:32;;;;;;;14.35;9.02;;;;;;;8.69;74.35;100887.38;5049758;28;20044;-75
2022/10/19 06:27:59;;;;;;;14.98;9.52;;;;;;;9.01;74.62;100938.72;5049826;28;20418;-75
2022/10/19 06:30:25;;;;;;;12.88;9.15;;;;;;;9.20;74.16;100930.25;5050381;28;20115;-75
2022/10/19 06:32:50;;;;;;;13.13;9.27;;;;;;;9.40;73.28;100926.06;5050144;28;20025;-75
2022/10/19 06:35:16;;;;;;;13.27;9.30;;;;;;;9.54;72.97;100922.50;5050408;28;20485;-75
2022/10/19 06:37:42;;;;;;;14.82;9.05;;;;;;;9.77;72.33;100932.09;5050141;28;20057;-76
2022/10/19 06:40:08;;;;;;;17.92;9.45;;;;;;;9.84;72.01;100929.91;5050084;28;20072;-75
2022/10/19 06:42:33;;;;;;;16.92;9.43;;;;;;;9.90;71.95;100931.03;4998222;28;20035;-75
2022/10/19 06:44:59;;;;;;;23.42;10.13;;;;;;;9.97;72.06;100926.22;5050106;28;20043;-75
2022/10/19 06:47:29;;;;;;;14.95;9.50;;;;;;;10.11;71.82;100924.25;5050079;28;20041;-75
2022/10/19 06:49:56;;;;;;;17.13;10.77;;;;;;;10.31;70.90;100932.91;5049979;28;20033;-75
2022/10/19 06:52:21;;;;;;;18.52;9.57;;;;;;;10.50;70.20;100921.78;5050141;28;20024;-75
2022/10/19 06:54:46;;;;;;;20.13;9.57;;;;;;;10.49;69.80;100927.75;5049036;28;20039;-75
2022/10/19 06:57:12;;;;;;;18.50;9.38;;;;;;;10.58;69.77;100918.63;5032104;28;20025;-75
2022/10/19 06:59:37;;;;;;;13.40;9.38;;;;;;;10.41;70.06;100933.38;5050238;28;20521;-75
2022/10/19 07:02:03;;;;;;;18.25;9.20;;;;;;;10.64;69.59;100924.97;5049885;28;20032;-75
2022/10/19 07:04:29;;;;;;;14.48;8.82;;;;;;;10.57;69.50;100889.34;5049931;28;20032;-75
2022/10/19 07:09:29;;;;;;;14.30;9.20;;;;;;;11.04;68.01;100914.56;5246382;22;20415;-75
2022/10/19 07:11:55;;;;;;;16.73;9.30;;;;;;;11.25;68.29;100920.66;5074470;28;20043;-75
2022/10/19 07:14:23;;;;;;;12.13;8.32;;;;;;;11.24;68.02;100913.72;5074497;28;20043;-75
2022/10/19 07:16:49;;;;;;;15.57;9.10;;;;;;;11.41;67.29;100910.94;5074464;28;20406;-75
2022/10/19 07:19:15;;;;;;;21.25;9.55;;;;;;;11.45;67.31;100911.13;5074239;28;20028;-75
2022/10/19 07:21:42;;;;;;;15.82;9.15;;;;;;;11.44;67.93;100904.19;5074254;28;20025;-75
2022/10/19 07:24:08;;;;;;;14.18;9.18;;;;;;;11.64;66.80;100889.44;5117368;22;20068;-75
2022/10/19 07:26:34;;;;;;;16.85;9.20;;;;;;;11.77;66.79;100895.97;5074541;28;20033;-75
2022/10/19 07:29:01;;;;;;;12.65;8.13;;;;;;;11.61;67.06;100889.34;5074277;28;20452;-75
2022/10/19 07:31:28;;;;;;;17.73;9.90;;;;;;;11.77;66.21;100866.66;5074260;28;20035;-75
2022/10/19 07:34:00;;;;;;;15.65;8.32;;;;;;;11.99;66.26;100883.91;5074145;28;20032;-75
2022/10/19 07:36:27;;;;;;;17.23;8.43;;;;;;;12.18;64.90;100880.28;5074580;28;20024;-75
2022/10/19 07:38:53;;;;;;;14.05;8.23;;;;;;;12.21;65.31;100884.69;5056173;28;20625;-75
2022/10/19 07:41:21;;;;;;;11.18;7.65;;;;;;;12.36;65.44;100874.03;5073734;28;20032;-75
2022/10/19 07:43:47;;;;;;;16.98;8.35;;;;;;;12.49;64.80;100872.78;5017797;28;20029;-76
2022/10/19 07:46:18;;;;;;;11.98;8.02;;;;;;;12.58;64.29;100870.50;5071960;28;20086;-75
2022/10/19 07:48:44;;;;;;;13.07;7.50;;;;;;;12.71;64.06;100861.44;5073973;28;20086;-76
2022/10/19 07:51:12;;;;;;;11.80;8.15;;;;;;;12.76;63.67;100857.28;5074030;28;20032;-75
2022/10/19 07:53:38;;;;;;;10.73;8.40;;;;;;;12.91;62.90;100860.41;5073864;28;20094;-75
2022/10/19 07:56:07;;;;;;;14.15;8.07;;;;;;;12.97;63.11;100856.25;5073757;28;20036;-75
2022/10/19 07:58:33;;;;;;;11.93;7.47;;;;;;;12.81;62.72;100816.00;5085375;23;20501;-74
2022/10/19 08:01:06;;;;;;;12.98;7.85;;;;;;;13.13;62.32;100852.47;5057877;28;20482;-74
2022/10/19 08:03:32;;;;;;;12.00;8.00;;;;;;;13.27;63.47;100851.19;5045665;28;20509;-75
2022/10/19 08:06:02;;;;;;;17.40;7.75;;;;;;;13.36;61.56;100848.91;5054899;28;20025;-74
2022/10/19 08:08:28;;;;;;;14.73;7.60;;;;;;;13.34;61.72;100813.38;5052915;28;20080;-74
2022/10/19 08:10:54;;;;;;;12.45;6.88;;;;;;;13.66;60.77;100847.25;5032923;28;20018;-74
2022/10/19 08:13:19;;;;;;;17.65;8.32;;;;;;;13.73;61.11;100847.50;5033534;28;20037;-73
2022/10/19 08:15:45;;;;;;;17.58;7.38;;;;;;;13.74;60.48;100810.34;5045201;28;20025;-73
2022/10/19 08:18:10;;;;;;;16.45;6.75;;;;;;;14.15;59.53;100842.63;5045497;28;20032;-73
2022/10/19 08:20:36;;;;;;;15.77;7.30;;;;;;;14.27;59.81;100842.06;5040767;28;20029;-73
2022/10/19 08:23:02;;;;;;;10.55;6.80;;;;;;;14.16;60.36;100829.69;5047052;28;20044;-74
2022/10/19 08:25:27;;;;;;;13.13;7.10;;;;;;;14.33;59.67;100831.84;5052522;28;20025;-74
2022/10/19 08:27:52;;;;;;;13.32;7.30;;;;;;;14.14;60.71;100799.31;5052271;28;20033;-73
2022/10/19 08:30:18;;;;;;;10.85;5.97;;;;;;;14.53;60.08;100832.41;5043463;28;20025;-76
2022/10/19 08:32:43;;;;;;;12.18;6.03;;;;;;;14.54;60.26;100800.38;5035578;28;20059;-74
2022/10/19 08:35:09;;;;;;;9.07;6.05;;;;;;;14.88;59.51;100825.53;5036205;28;20490;-74
2022/10/19 08:37:34;;;;;;;11.60;5.90;;;;;;;15.02;59.17;100820.69;5052425;28;20025;-74
2022/10/19 08:40:00;;;;;;;10.80;5.53;;;;;;;15.18;59.04;100816.72;5052484;28;20032;-75
2022/10/19 08:42:49;;;;;;;10.75;5.40;;;;;;;15.22;58.56;100809.88;5034080;28;20033;-74
2022/10/19 08:45:17;;;;;;;;;;;;;;;15.26;58.61;100801.28;5052988;28;20029;-74
2022/10/19 08:48:04;;;;;;;10.43;5.35;;;;;;;15.37;58.29;100802.41;5052275;28;19917;-74
2022/10/19 08:50:42;;;;;;;11.93;5.15;;;;;;;15.37;58.59;100797.22;5032448;28;20033;-74
2022/10/19 08:53:46;;;;;;;9.52;5.72;;;;;;;15.58;58.22;100792.47;5032244;28;20095;-74
2022/10/19 08:56:18;;;;;;;8.32;4.95;;;;;;;15.66;58.01;100781.38;4951648;29;20126;-74
2022/10/19 08:59:20;;;;;;;14.38;5.60;;;;;;;15.83;57.79;100784.34;4953226;28;20116;-75
2022/10/19 09:01:58;;;;;;;139.32;12.48;;;;;;;16.13;57.19;100783.19;4968824;28;20070;-75
2022/10/19 09:04:35;;;;;;;10.68;4.85;;;;;;;16.24;56.74;100777.34;4970536;28;20074;-75
2022/10/19 09:07:24;;;;;;;9.20;4.80;;;;;;;16.42;56.58;100772.44;4968090;28;20076;-72
2022/10/19 09:09:53;;;;;;;11.05;4.80;;;;;;;16.36;58.71;100769.72;4967863;28;20042;-73
2022/10/19 09:12:30;;;;;;;18.80;7.77;;;;;;;16.30;59.55;100767.88;4973030;28;20042;-73
2022/10/19 09:15:03;;;;;;;12.65;6.57;;;;;;;16.50;58.45;100756.94;4968975;28;20062;-74
2022/10/19 09:17:30;;;;;;;11.98;5.25;;;;;;;16.66;56.50;100751.13;4969035;28;20035;-72
2022/10/19 09:19:55;;;;;;;7.20;4.75;;;;;;;16.92;55.25;100753.31;4936643;28;20059;-73
2022/10/19 09:22:33;;;;;;;9.20;4.80;;;;;;;16.85;55.23;100708.81;4969501;28;20066;-74
2022/10/19 09:25:25;;;;;;;11.02;4.60;;;;;;;17.28;55.08;100749.50;4969051;28;20063;-74
2022/10/19 09:28:05;;;;;;;36.22;22.60;;;;;;;16.93;56.51;100708.13;4968721;28;20035;-73
2022/10/19 09:30:35;;;;;;;20.80;13.70;;;;;;;17.22;55.20;100744.19;4968820;28;20061;-73
2022/10/19 09:33:01;;;;;;;7.75;4.10;;;;;;;17.25;53.70;100745.97;4995883;28;20124;-72
2022/10/19 09:35:39;;;;;;;7.93;3.92;;;;;;;17.40;55.99;100732.25;5030502;28;20108;-73
2022/10/19 09:38:07;;;;;;;14.05;3.92;;;;;;;17.56;53.82;100718.53;5033049;28;20067;-73
2022/10/19 09:40:34;;;;;;;6.35;3.65;;;;;;;17.70;52.03;100723.03;5030051;28;20033;-73
2022/10/19 09:43:07;;;;;;;10.38;4.45;;;;;;;17.89;54.25;100725.00;5029850;28;20025;-73
2022/10/19 09:45:33;;;;;;;7.88;4.05;;;;;;;17.76;47.94;100683.94;5043864;28;20033;-73
2022/10/19 09:48:00;;;;;;;9.05;3.60;;;;;;;18.13;45.91;100713.09;5030431;28;20014;-74
2022/10/19 09:50:29;;;;;;;9.25;3.80;;;;;;;18.18;48.53;100685.28;5030064;28;20494;-74
2022/10/19 09:53:04;;;;;;;5.20;3.40;;;;;;;18.47;47.01;100702.94;5029729;28;20026;-74
2022/10/19 09:55:41;;;;;;;8.82;3.70;;;;;;;18.70;48.03;100700.47;5029067;28;20045;-75
2022/10/19 09:58:15;;;;;;;6.90;3.58;;;;;;;18.88;46.88;100694.50;5030099;28;20438;-74
2022/10/19 10:00:49;;;;;;;24.95;3.90;;;;;;;18.79;47.27;100655.25;5035184;28;20106;-70
2022/10/19 10:03:39;;;;;;;8.25;3.17;;;;;;;18.89;46.72;100646.56;5050178;28;20028;-74
2022/10/19 10:06:13;;;;;;;6.47;3.50;;;;;;;19.19;47.33;100672.91;5038226;28;20029;-74
2022/10/19 10:08:45;;;;;;;9.02;3.35;;;;;;;19.33;46.07;100671.22;5048971;28;20547;-74
2022/10/19 10:11:23;;;;;;;11.00;3.63;;;;;;;19.44;44.65;100671.28;5050207;28;20398;-74
2022/10/19 10:13:51;;;;;;;6.22;3.40;;;;;;;19.45;46.04;100670.41;5050270;28;20021;-74
2022/10/19 10:16:20;;;;;;;11.32;3.40;;;;;;;19.52;45.87;100653.81;5050162;28;20536;-74
2022/10/19 10:18:54;;;;;;;10.30;3.90;;;;;;;19.75;44.46;100662.63;5050453;28;20464;-73
2022/10/19 10:21:23;;;;;;;7.55;3.15;;;;;;;19.51;42.86;100654.69;5049963;28;20756;-73
2022/10/19 10:24:10;;;;;;;6.30;3.05;;;;;;;19.63;43.53;100653.00;5050070;28;20033;-74
2022/10/19 10:26:47;;;;;;;8.40;3.10;;;;;;;19.56;43.83;100647.75;5035603;28;20029;-73
2022/10/19 10:29:18;;;;;;;5.28;3.20;;;;;;;19.68;44.16;100646.03;5030493;28;20032;-73
2022/10/19 10:31:45;;;;;;;6.82;2.72;;;;;;;19.46;43.01;100608.44;5029817;28;20495;-72
2022/10/19 10:34:17;;;;;;;6.10;3.17;;;;;;;19.75;43.24;100632.09;5028818;28;20037;-73
2022/10/19 10:36:42;;;;;;;9.52;3.20;;;;;;;19.89;42.96;100626.88;5030085;28;20106;-73
2022/10/19 10:39:16;;;;;;;8.13;3.13;;;;;;;20.00;42.26;100608.53;5029852;28;20600;-73
2022/10/19 10:41:45;;;;;;;6.15;3.13;;;;;;;19.92;41.64;100603.28;5035309;28;20508;-73
2022/10/19 10:44:25;;;;;;;7.70;3.33;;;;;;;20.08;42.03;100617.28;5036985;28;20112;-74
2022/10/19 10:46:59;;;;;;;10.95;3.20;;;;;;;20.19;43.34;100604.19;5037534;28;20029;-74
2022/10/19 10:49:32;;;;;;;7.35;3.45;;;;;;;20.29;41.12;100600.66;5049858;28;20055;-73
2022/10/19 10:52:08;;;;;;;9.75;3.25;;;;;;;19.99;40.82;100565.75;5035149;28;20044;-72
2022/10/19 10:54:34;;;;;;;10.40;2.95;;;;;;;20.35;41.48;100591.94;5030006;28;20026;-74
2022/10/19 10:57:19;;;;;;;5.38;2.90;;;;;;;20.30;43.13;100528.13;5029945;28;20040;-71
2022/10/19 11:00:02;;;;;;;6.68;2.70;;;;;;;20.86;42.05;100583.97;5030220;28;20045;-72
2022/10/19 11:02:46;;;;;;;5.40;2.97;;;;;;;21.02;41.60;100563.75;5029947;28;20025;-71
2022/10/19 11:05:11;;;;;;;6.35;2.78;;;;;;;21.14;41.66;100571.56;5031834;28;20057;-74
2022/10/19 11:07:43;;;;;;;7.55;3.20;;;;;;;21.14;39.06;100553.19;5049843;28;20052;-73
2022/10/19 11:10:50;;;;;;;11.55;2.92;;;;;;;21.30;38.44;100572.38;5041455;28;20398;-73
2022/10/19 11:13:40;;;;;;;8.93;3.35;;;;;;;21.39;38.35;100562.72;4968283;28;20058;-73
2022/10/19 11:16:11;;;;;;;;;;;;;;;21.46;37.47;100561.78;4957185;28;20093;-73
2022/10/19 11:18:51;;;;;;;4.75;3.10;;;;;;;21.33;38.73;100530.34;4968116;28;19910;-72
2022/10/19 11:21:24;;;;;;;9.57;3.38;;;;;;;21.33;37.70;100525.09;4968494;28;20035;-73
2022/10/19 11:24:04;;;;;;;8.20;3.10;;;;;;;21.58;37.67;100550.34;4968557;28;20061;-73
2022/10/19 11:27:02;;;;;;;7.35;3.25;;;;;;;21.68;37.08;100548.53;4968578;28;20031;-73
2022/10/19 11:29:58;;;;;;;4.07;2.55;;;;;;;21.61;35.42;100534.56;4939775;28;20092;-74
2022/10/19 11:32:42;;;;;;;5.55;2.45;;;;;;;21.75;35.36;100532.69;4940414;28;20126;-73
2022/10/19 11:35:10;;;;;;;8.20;2.85;;;;;;;21.90;34.87;100531.69;4948119;29;20043;-74
2022/10/19 11:38:15;;;;;;;4.60;2.72;;;;;;;22.00;35.83;100536.88;4948904;29;20047;-74
2022/10/19 11:41:01;;;;;;;5.03;2.50;;;;;;;21.99;35.12;100528.09;4928370;29;20043;-74
2022/10/19 11:43:54;;;;;;;6.75;3.08;;;;;;;22.01;35.58;100523.72;4948852;28;20512;-73
2022/10/19 11:46:44;;;;;;;4.07;2.42;;;;;;;22.06;35.78;100519.28;4947058;29;20050;-73
2022/10/19 11:49:23;;;;;;;4.63;2.60;;;;;;;22.01;35.15;100521.09;4949321;28;20047;-71